Time;durP1;ratioP1;P1;durP2;ratioP2;P2;SDS_P1;SDS_P2;PMS_P1;PMS_P2;Temp;Humidity;BMP_temperature;BMP_pressure;BME280_temperature;BME280_humidity;BME280_pressure;Samples;Min_cycle;Max_cycle;Signal;HPM_P1;HPM_P2
2022/11/26 00:02:17;;;;;;;67.85;33.30;;;;;;;;;;6155281;23;20440;-33
2022/11/26 00:04:42;;;;;;;71.35;33.85;;;;;;;;;;6155310;23;19998;-33
2022/11/26 00:07:09;;;;;;;77.93;34.92;;;;;;;;;;6156027;23;20138;-33
2022/11/26 00:09:35;;;;;;;85.10;36.67;;;;;;;;;;6129469;23;20005;-33
2022/11/26 00:12:00;;;;;;;75.10;34.67;;;;;;;;;;6155701;23;19998;-33
2022/11/26 00:14:26;;;;;;;80.82;36.00;;;;;;;;;;6155422;23;20017;-34
2022/11/26 00:16:51;;;;;;;75.85;35.95;;;;;;;;;;6162614;23;20009;-34
2022/11/26 00:19:17;;;;;;;81.55;36.15;;;;;;;;;;6185140;23;19993;-33
2022/11/26 00:21:42;;;;;;;87.53;40.85;;;;;;;;;;6185264;23;20005;-33
2022/11/26 00:24:25;;;;;;;83.20;40.92;;;;;;;;;;6185356;23;20028;-33
2022/11/26 00:26:50;;;;;;;83.53;37.15;;;;;;;;;;6184975;23;20080;-33
2022/11/26 00:29:16;;;;;;;86.22;38.28;;;;;;;;;;6185212;23;20028;-33
2022/11/26 00:31:41;;;;;;;85.82;36.90;;;;;;;;;;6185276;23;20394;-34
2022/11/26 00:34:06;;;;;;;75.47;36.65;;;;;;;;;;6158965;23;20023;-33
2022/11/26 00:36:32;;;;;;;79.25;35.60;;;;;;;;;;6185201;23;20001;-33
2022/11/26 00:39:02;;;;;;;75.78;33.38;;;;;;;;;;6184935;23;19993;-34
2022/11/26 00:41:30;;;;;;;70.18;34.03;;;;;;;;;;6185585;23;20001;-33
2022/11/26 00:43:56;;;;;;;82.40;36.15;;;;;;;;;;6185311;23;20012;-33
2022/11/26 00:46:22;;;;;;;76.80;36.00;;;;;;;;;;6185192;23;19993;-33
2022/11/26 00:48:47;;;;;;;75.03;36.47;;;;;;;;;;6185246;23;20067;-33
2022/11/26 00:51:14;;;;;;;72.43;34.63;;;;;;;;;;6185073;23;19997;-34
2022/11/26 00:53:40;;;;;;;76.15;33.10;;;;;;;;;;6185204;23;19997;-33
2022/11/26 00:56:05;;;;;;;68.65;31.95;;;;;;;;;;6185187;23;20001;-33
2022/11/26 00:58:30;;;;;;;73.30;33.80;;;;;;;;;;6185320;23;20370;-33
2022/11/26 01:00:57;;;;;;;69.97;33.72;;;;;;;;;;6185249;23;19997;-33
2022/11/26 01:03:22;;;;;;;66.30;31.00;;;;;;;;;;6185076;23;19997;-33
2022/11/26 01:05:48;;;;;;;66.57;30.90;;;;;;;;;;6186969;23;20128;-33
2022/11/26 01:08:23;;;;;;;63.45;30.13;;;;;;;;;;6186561;23;20009;-33
2022/11/26 01:10:48;;;;;;;64.10;30.67;;;;;;;;;;6186959;23;20025;-33
2022/11/26 01:13:13;;;;;;;66.38;31.15;;;;;;;;;;6186622;23;20044;-33
2022/11/26 01:15:40;;;;;;;72.18;33.50;;;;;;;;;;6186962;23;19996;-33
2022/11/26 01:18:13;;;;;;;72.10;34.03;;;;;;;;;;6187037;23;20017;-33
2022/11/26 01:20:38;;;;;;;64.97;31.20;;;;;;;;;;6160631;23;20001;-34
2022/11/26 01:23:03;;;;;;;68.78;32.00;;;;;;;;;;6186974;23;20282;-34
2022/11/26 01:25:28;;;;;;;64.93;30.30;;;;;;;;;;6186904;23;20061;-33
2022/11/26 01:27:54;;;;;;;71.63;32.67;;;;;;;;;;6186834;23;20005;-33
2022/11/26 01:30:23;;;;;;;68.53;30.83;;;;;;;;;;6186981;23;19997;-33
2022/11/26 01:32:49;;;;;;;58.33;27.65;;;;;;;;;;6160478;23;20326;-33
2022/11/26 01:35:14;;;;;;;64.20;28.80;;;;;;;;;;6186970;23;19997;-34
2022/11/26 01:37:40;;;;;;;58.22;29.17;;;;;;;;;;6186661;23;20004;-33
2022/11/26 01:40:22;;;;;;;65.63;29.08;;;;;;;;;;6186521;23;20317;-33
2022/11/26 01:42:50;;;;;;;63.30;30.23;;;;;;;;;;6186911;23;20064;-33
2022/11/26 01:45:17;;;;;;;71.40;30.08;;;;;;;;;;6186646;23;20071;-34
2022/11/26 01:47:42;;;;;;;70.45;30.77;;;;;;;;;;6186510;23;20333;-33
2022/11/26 01:50:26;;;;;;;86.82;29.35;;;;;;;;;;6186645;23;19993;-33
2022/11/26 01:52:52;;;;;;;59.72;28.02;;;;;;;;;;6186618;23;19996;-33
2022/11/26 01:55:18;;;;;;;68.15;29.23;;;;;;;;;;6186461;23;20003;-34
2022/11/26 01:57:43;;;;;;;58.40;28.13;;;;;;;;;;6186852;23;20068;-33
2022/11/26 02:00:09;;;;;;;69.55;29.60;;;;;;;;;;6186669;23;20004;-33
2022/11/26 02:02:34;;;;;;;67.28;28.95;;;;;;;;;;6186039;23;20447;-33
2022/11/26 02:05:18;;;;;;;62.67;29.45;;;;;;;;;;6186594;23;20001;-33
2022/11/26 02:07:44;;;;;;;71.18;28.33;;;;;;;;;;6159961;23;20012;-33
2022/11/26 02:10:11;;;;;;;60.20;28.70;;;;;;;;;;6186566;23;20001;-33
2022/11/26 02:12:36;;;;;;;75.68;30.42;;;;;;;;;;6186568;23;19996;-33
2022/11/26 02:15:02;;;;;;;63.63;28.83;;;;;;;;;;6186316;23;20468;-33
2022/11/26 02:17:46;;;;;;;64.65;29.20;;;;;;;;;;6186142;23;20063;-34
2022/11/26 02:20:11;;;;;;;65.85;28.77;;;;;;;;;;6186402;23;20020;-33
2022/11/26 02:22:49;;;;;;;62.88;30.27;;;;;;;;;;6186480;23;20407;-33
2022/11/26 02:25:23;;;;;;;64.32;29.77;;;;;;;;;;6186666;23;20031;-33
2022/11/26 02:28:00;;;;;;;73.78;28.60;;;;;;;;;;6186209;23;20306;-33
2022/11/26 02:30:26;;;;;;;83.57;30.58;;;;;;;;;;6186404;23;19997;-33
2022/11/26 02:32:52;;;;;;;65.57;28.48;;;;;;;;;;6186041;23;20004;-34
2022/11/26 02:35:17;;;;;;;69.20;29.02;;;;;;;;;;6186454;23;20120;-33
2022/11/26 02:37:46;;;;;;;68.60;29.67;;;;;;;;;;6186257;23;20019;-33
2022/11/26 02:40:12;;;;;;;60.33;28.45;;;;;;;;;;6186261;23;20274;-33
2022/11/26 02:42:37;;;;;;;57.85;28.23;;;;;;;;;;6185796;23;19993;-33
2022/11/26 02:45:25;;;;;;;59.10;27.83;;;;;;;;;;6186153;23;20042;-33
2022/11/26 02:47:56;;;;;;;70.93;29.20;;;;;;;;;;6169677;23;20019;-33
2022/11/26 02:50:24;;;;;;;97.15;31.60;;;;;;;;;;6159603;23;20012;-34
2022/11/26 02:52:51;;;;;;;87.22;32.85;;;;;;;;;;6185622;23;20001;-33
2022/11/26 02:55:17;;;;;;;65.72;30.90;;;;;;;;;;6186055;23;20485;-33
2022/11/26 02:57:45;;;;;;;96.53;29.95;;;;;;;;;;6185784;23;19989;-33
2022/11/26 03:00:10;;;;;;;97.38;30.33;;;;;;;;;;6185889;23;20005;-34
2022/11/26 03:02:44;;;;;;;114.25;31.85;;;;;;;;;;6186005;23;20056;-33
2022/11/26 03:05:10;;;;;;;90.88;32.00;;;;;;;;;;6185708;23;20011;-34
2022/11/26 03:07:36;;;;;;;88.10;30.77;;;;;;;;;;6185668;23;20009;-33
2022/11/26 03:10:01;;;;;;;111.78;32.05;;;;;;;;;;6185809;23;20476;-33
2022/11/26 03:12:27;;;;;;;93.03;33.00;;;;;;;;;;6185309;23;20080;-33
2022/11/26 03:14:53;;;;;;;71.70;29.92;;;;;;;;;;6185454;23;20003;-33
2022/11/26 03:17:18;;;;;;;91.97;31.23;;;;;;;;;;6185401;23;20317;-33
2022/11/26 03:19:44;;;;;;;79.97;29.45;;;;;;;;;;6185463;23;19993;-34
2022/11/26 03:22:09;;;;;;;83.32;28.52;;;;;;;;;;6185714;23;20005;-34
2022/11/26 03:24:35;;;;;;;69.43;29.25;;;;;;;;;;6186007;23;19992;-33
2022/11/26 03:27:01;;;;;;;81.68;28.98;;;;;;;;;;6185058;23;20000;-33
2022/11/26 03:29:26;;;;;;;71.45;27.60;;;;;;;;;;6184994;23;20067;-33
2022/11/26 03:31:51;;;;;;;59.28;27.60;;;;;;;;;;6185304;23;20412;-33
2022/11/26 03:34:16;;;;;;;73.95;28.23;;;;;;;;;;6159163;23;20029;-34
2022/11/26 03:36:42;;;;;;;66.43;27.05;;;;;;;;;;6184977;23;20005;-33
2022/11/26 03:39:07;;;;;;;75.68;26.02;;;;;;;;;;6185197;23;20380;-33
2022/11/26 03:41:32;;;;;;;83.30;29.00;;;;;;;;;;6184972;23;20005;-33
2022/11/26 03:43:57;;;;;;;64.03;26.70;;;;;;;;;;6185328;23;19993;-33
2022/11/26 03:46:23;;;;;;;67.90;26.50;;;;;;;;;;6185247;23;19993;-33
2022/11/26 03:48:48;;;;;;;71.57;28.40;;;;;;;;;;6185269;23;20067;-33
2022/11/26 03:51:13;;;;;;;78.70;27.42;;;;;;;;;;6185136;23;20461;-33
2022/11/26 03:53:38;;;;;;;69.50;25.70;;;;;;;;;;6185276;23;19997;-33
2022/11/26 03:56:04;;;;;;;60.85;24.35;;;;;;;;;;6185191;23;20001;-33
2022/11/26 03:58:29;;;;;;;81.47;26.67;;;;;;;;;;6185229;23;20127;-33
2022/11/26 04:00:54;;;;;;;91.10;26.60;;;;;;;;;;6185170;23;20403;-33
2022/11/26 04:03:19;;;;;;;76.88;23.77;;;;;;;;;;6185221;23;20010;-33
2022/11/26 04:05:45;;;;;;;97.22;24.58;;;;;;;;;;6185241;23;19997;-33
2022/11/26 04:08:10;;;;;;;71.13;24.13;;;;;;;;;;6184634;23;20005;-33
2022/11/26 04:10:35;;;;;;;84.72;26.95;;;;;;;;;;6184997;23;20467;-33
2022/11/26 04:13:01;;;;;;;60.05;24.05;;;;;;;;;;6185166;23;20068;-34
2022/11/26 04:15:26;;;;;;;74.80;24.40;;;;;;;;;;6184471;23;20000;-33
2022/11/26 04:17:51;;;;;;;73.53;23.50;;;;;;;;;;6185090;23;20035;-33
2022/11/26 04:20:16;;;;;;;68.63;23.83;;;;;;;;;;6184972;23;20071;-34
2022/11/26 04:22:42;;;;;;;70.95;23.55;;;;;;;;;;6185111;23;20409;-33
2022/11/26 04:25:07;;;;;;;61.42;24.08;;;;;;;;;;6184705;23;20000;-33
2022/11/26 04:27:32;;;;;;;69.20;22.35;;;;;;;;;;6184989;23;20104;-34
2022/11/26 04:29:58;;;;;;;67.22;23.38;;;;;;;;;;6158904;23;19997;-33
2022/11/26 04:32:23;;;;;;;62.15;22.88;;;;;;;;;;6158451;23;20292;-33
2022/11/26 04:34:48;;;;;;;79.65;22.90;;;;;;;;;;6184899;23;20071;-35
2022/11/26 04:37:13;;;;;;;65.57;21.27;;;;;;;;;;6184627;23;19993;-34
2022/11/26 04:39:39;;;;;;;64.40;22.50;;;;;;;;;;6185724;23;20354;-33
2022/11/26 04:42:04;;;;;;;79.70;22.77;;;;;;;;;;6186683;23;20049;-33
2022/11/26 04:44:29;;;;;;;63.67;21.40;;;;;;;;;;6187139;23;20063;-33
2022/11/26 04:46:54;;;;;;;69.80;22.45;;;;;;;;;;6186940;23;20004;-34
2022/11/26 04:49:19;;;;;;;44.75;20.75;;;;;;;;;;6160651;23;20008;-34
2022/11/26 04:51:45;;;;;;;51.17;23.23;;;;;;;;;;6186936;23;20047;-33
2022/11/26 04:54:10;;;;;;;49.88;22.40;;;;;;;;;;6160524;23;20259;-34
2022/11/26 04:56:35;;;;;;;71.07;23.88;;;;;;;;;;6186903;23;19997;-34
2022/11/26 04:59:00;;;;;;;57.72;22.58;;;;;;;;;;6187131;23;20004;-33
2022/11/26 05:01:26;;;;;;;57.53;24.92;;;;;;;;;;6186880;23;19993;-33
2022/11/26 05:03:51;;;;;;;60.30;22.38;;;;;;;;;;6186872;23;20031;-34
2022/11/26 05:06:16;;;;;;;67.28;22.30;;;;;;;;;;6186828;23;20488;-34
2022/11/26 05:08:42;;;;;;;56.17;21.45;;;;;;;;;;6186939;23;20313;-33
2022/11/26 05:11:07;;;;;;;58.40;21.17;;;;;;;;;;6186746;23;20009;-33
2022/11/26 05:13:32;;;;;;;61.95;21.50;;;;;;;;;;6186487;23;19993;-33
2022/11/26 05:15:57;;;;;;;52.33;20.92;;;;;;;;;;6160315;23;20001;-33
2022/11/26 05:18:23;;;;;;;67.22;23.25;;;;;;;;;;6186341;23;20341;-33
2022/11/26 05:20:48;;;;;;;62.30;23.42;;;;;;;;;;6186146;23;20037;-33
2022/11/26 05:23:13;;;;;;;59.95;21.35;;;;;;;;;;6186425;23;19997;-33
2022/11/26 05:25:39;;;;;;;63.42;22.45;;;;;;;;;;6186526;23;20117;-34
2022/11/26 05:28:04;;;;;;;66.90;22.13;;;;;;;;;;6186531;23;20009;-33
2022/11/26 05:30:29;;;;;;;67.13;22.65;;;;;;;;;;6160183;23;20437;-32
2022/11/26 05:32:54;;;;;;;62.92;24.20;;;;;;;;;;6186407;23;20326;-34
2022/11/26 05:35:20;;;;;;;74.22;26.48;;;;;;;;;;6186436;23;19993;-33
2022/11/26 05:37:45;;;;;;;56.35;24.50;;;;;;;;;;6186705;23;19994;-33
2022/11/26 05:40:10;;;;;;;47.65;23.00;;;;;;;;;;6160244;23;19997;-33
2022/11/26 05:42:37;;;;;;;50.08;22.67;;;;;;;;;;6186648;23;20468;-33
2022/11/26 05:45:03;;;;;;;49.00;21.83;;;;;;;;;;6186552;23;20464;-33
2022/11/26 05:47:28;;;;;;;56.28;26.80;;;;;;;;;;6185900;23;20088;-33
2022/11/26 05:49:54;;;;;;;67.72;27.15;;;;;;;;;;6186078;23;20001;-33
2022/11/26 05:52:20;;;;;;;64.85;24.63;;;;;;;;;;6186538;23;19997;-33
2022/11/26 05:54:45;;;;;;;71.68;25.70;;;;;;;;;;6186325;23;19993;-33
2022/11/26 05:57:10;;;;;;;65.00;23.70;;;;;;;;;;6186385;23;20008;-33
2022/11/26 05:59:36;;;;;;;52.28;22.67;;;;;;;;;;6186491;23;19993;-33
2022/11/26 06:02:01;;;;;;;62.30;23.65;;;;;;;;;;6186475;23;20016;-33
2022/11/26 06:04:26;;;;;;;55.33;23.50;;;;;;;;;;6186154;23;20342;-34
2022/11/26 06:06:51;;;;;;;65.57;22.58;;;;;;;;;;6186366;23;19997;-34
2022/11/26 06:09:17;;;;;;;42.40;21.25;;;;;;;;;;6186277;23;20438;-34
2022/11/26 06:11:42;;;;;;;59.05;23.55;;;;;;;;;;6186328;23;20015;-34
2022/11/26 06:14:09;;;;;;;74.60;23.13;;;;;;;;;;6186420;23;20004;-34
2022/11/26 06:16:34;;;;;;;64.18;24.58;;;;;;;;;;6186069;23;19999;-34
2022/11/26 06:18:59;;;;;;;65.05;24.98;;;;;;;;;;6185978;23;20020;-34
2022/11/26 06:21:25;;;;;;;89.10;27.27;;;;;;;;;;6186204;23;19990;-33
2022/11/26 06:23:50;;;;;;;104.35;30.90;;;;;;;;;;6185754;23;19997;-34
2022/11/26 06:26:15;;;;;;;59.72;27.38;;;;;;;;;;6186183;23;20080;-33
2022/11/26 06:28:40;;;;;;;85.80;30.27;;;;;;;;;;6184942;23;20394;-32
2022/11/26 06:31:07;;;;;;;93.70;33.28;;;;;;;;;;6186016;23;19997;-32
2022/11/26 06:33:32;;;;;;;92.50;34.33;;;;;;;;;;6186194;23;20413;-32
2022/11/26 06:35:59;;;;;;;100.15;33.97;;;;;;;;;;6186159;23;20080;-33
2022/11/26 06:38:24;;;;;;;60.20;28.98;;;;;;;;;;6185920;23;20024;-32
2022/11/26 06:40:56;;;;;;;68.38;27.83;;;;;;;;;;6186030;23;19997;-33
2022/11/26 06:43:21;;;;;;;64.32;26.38;;;;;;;;;;6185527;23;19993;-33
2022/11/26 06:45:46;;;;;;;60.08;25.92;;;;;;;;;;6159474;23;20004;-35
2022/11/26 06:48:11;;;;;;;60.88;24.02;;;;;;;;;;6185374;23;20011;-34
2022/11/26 06:50:37;;;;;;;60.85;23.88;;;;;;;;;;6185944;23;20039;-34
2022/11/26 06:53:02;;;;;;;59.13;24.92;;;;;;;;;;6185655;23;20373;-34
2022/11/26 06:55:27;;;;;;;53.97;23.60;;;;;;;;;;6159213;23;20346;-34
2022/11/26 06:57:53;;;;;;;72.00;25.67;;;;;;;;;;6185745;23;20029;-34
2022/11/26 07:00:18;;;;;;;64.15;25.23;;;;;;;;;;6185645;23;20000;-34
2022/11/26 07:02:43;;;;;;;56.90;25.27;;;;;;;;;;6185230;23;20020;-34
2022/11/26 07:05:08;;;;;;;70.43;26.67;;;;;;;;;;6185938;23;20081;-34
2022/11/26 07:07:37;;;;;;;59.47;27.02;;;;;;;;;;6185182;23;20005;-34
2022/11/26 07:10:03;;;;;;;69.05;28.60;;;;;;;;;;6185757;23;20055;-32
2022/11/26 07:12:28;;;;;;;66.47;27.85;;;;;;;;;;6185703;23;19993;-34
2022/11/26 07:14:53;;;;;;;64.97;28.55;;;;;;;;;;6185528;23;19993;-32
2022/11/26 07:17:18;;;;;;;69.05;28.42;;;;;;;;;;6146844;23;20042;-33
2022/11/26 07:19:43;;;;;;;76.60;29.85;;;;;;;;;;6155621;23;20025;-33
2022/11/26 07:22:09;;;;;;;63.00;27.73;;;;;;;;;;6129671;23;19997;-33
2022/11/26 07:24:34;;;;;;;70.13;29.52;;;;;;;;;;6155768;23;20049;-32
2022/11/26 07:26:59;;;;;;;66.80;28.67;;;;;;;;;;6155395;23;20063;-33
2022/11/26 07:29:24;;;;;;;68.07;28.13;;;;;;;;;;6155689;23;20440;-33
2022/11/26 07:31:50;;;;;;;62.15;28.73;;;;;;;;;;6155645;23;20317;-34
2022/11/26 07:34:15;;;;;;;66.97;27.45;;;;;;;;;;6155672;23;20318;-33
2022/11/26 07:36:42;;;;;;;71.30;29.20;;;;;;;;;;6155742;23;20076;-32
2022/11/26 07:39:08;;;;;;;59.80;25.00;;;;;;;;;;6155380;23;20446;-32
2022/11/26 07:41:33;;;;;;;56.25;25.05;;;;;;;;;;6155515;23;20008;-33
2022/11/26 07:43:59;;;;;;;52.90;23.48;;;;;;;;;;6155735;23;20021;-32
2022/11/26 07:46:24;;;;;;;50.38;23.25;;;;;;;;;;6155393;23;19997;-32
2022/11/26 07:48:50;;;;;;;53.28;24.15;;;;;;;;;;6155318;23;20334;-33
2022/11/26 07:51:26;;;;;;;50.10;23.08;;;;;;;;;;6155513;23;20406;-33
2022/11/26 07:53:52;;;;;;;50.20;22.63;;;;;;;;;;6155469;23;20064;-33
2022/11/26 07:56:17;;;;;;;64.32;26.02;;;;;;;;;;6155051;23;20032;-34
2022/11/26 07:58:43;;;;;;;64.65;27.17;;;;;;;;;;6155465;23;19989;-34
2022/11/26 08:01:09;;;;;;;72.72;27.02;;;;;;;;;;6155495;23;19993;-34
2022/11/26 08:03:39;;;;;;;57.22;23.95;;;;;;;;;;6154954;23;20022;-34
2022/11/26 08:06:06;;;;;;;65.82;27.80;;;;;;;;;;6129200;23;20021;-32
2022/11/26 08:08:32;;;;;;;57.47;25.27;;;;;;;;;;6155165;23;20330;-34
2022/11/26 08:10:57;;;;;;;59.67;25.83;;;;;;;;;;6155388;23;19993;-34
2022/11/26 08:13:22;;;;;;;53.05;25.25;;;;;;;;;;6155178;23;20415;-33
2022/11/26 08:15:48;;;;;;;64.10;27.27;;;;;;;;;;6155128;23;20408;-33
2022/11/26 08:18:13;;;;;;;57.33;25.58;;;;;;;;;;6178335;23;20373;-33
2022/11/26 08:20:39;;;;;;;62.53;26.70;;;;;;;;;;6185044;23;20023;-33
2022/11/26 08:23:04;;;;;;;61.15;26.80;;;;;;;;;;6184620;23;19997;-33
2022/11/26 08:25:29;;;;;;;58.53;26.08;;;;;;;;;;6185015;23;20001;-33
2022/11/26 08:27:54;;;;;;;64.20;28.65;;;;;;;;;;6185007;23;20317;-33
2022/11/26 08:30:20;;;;;;;70.15;27.33;;;;;;;;;;6184967;23;20008;-33
2022/11/26 08:32:45;;;;;;;60.35;26.20;;;;;;;;;;6185048;23;20409;-33
2022/11/26 08:35:11;;;;;;;67.43;28.05;;;;;;;;;;6185045;23;19993;-33
2022/11/26 08:37:36;;;;;;;63.22;27.67;;;;;;;;;;6158831;23;20045;-34
2022/11/26 08:40:02;;;;;;;62.47;26.67;;;;;;;;;;6184902;23;19997;-33
2022/11/26 08:42:27;;;;;;;59.33;27.08;;;;;;;;;;6184897;23;19997;-34
2022/11/26 08:44:53;;;;;;;61.80;27.35;;;;;;;;;;6184406;23;20025;-33
2022/11/26 08:47:18;;;;;;;57.55;25.95;;;;;;;;;;6184782;23;19997;-34
2022/11/26 08:49:46;;;;;;;73.53;30.63;;;;;;;;;;6184964;23;20068;-34
2022/11/26 08:52:12;;;;;;;76.65;29.75;;;;;;;;;;6185075;23;19989;-33
2022/11/26 08:54:37;;;;;;;72.22;28.92;;;;;;;;;;6184945;23;20032;-33
2022/11/26 08:57:04;;;;;;;82.00;31.73;;;;;;;;;;6184893;23;20068;-33
2022/11/26 08:59:29;;;;;;;71.32;29.55;;;;;;;;;;6184725;23;20436;-33
2022/11/26 09:01:54;;;;;;;68.25;27.90;;;;;;;;;;6185150;23;20002;-33
2022/11/26 09:04:20;;;;;;;63.70;28.48;;;;;;;;;;6184795;23;20406;-33
2022/11/26 09:06:45;;;;;;;70.38;26.83;;;;;;;;;;6184809;23;19996;-33
2022/11/26 09:09:13;;;;;;;63.75;27.95;;;;;;;;;;6184317;23;20300;-33
2022/11/26 09:11:41;;;;;;;66.78;28.75;;;;;;;;;;6184674;23;20068;-34
2022/11/26 09:14:07;;;;;;;70.75;29.83;;;;;;;;;;6184630;23;20044;-34
2022/11/26 09:16:32;;;;;;;70.43;29.42;;;;;;;;;;6184528;23;19989;-33
2022/11/26 09:19:01;;;;;;;64.85;29.83;;;;;;;;;;6184810;23;20012;-33
2022/11/26 09:21:26;;;;;;;72.20;31.45;;;;;;;;;;6184709;23;20051;-33
2022/11/26 09:23:52;;;;;;;74.15;30.80;;;;;;;;;;6184684;23;20076;-33
2022/11/26 09:26:20;;;;;;;75.88;32.03;;;;;;;;;;6185954;23;20007;-33
2022/11/26 09:28:46;;;;;;;83.97;33.25;;;;;;;;;;6186308;23;20085;-33
2022/11/26 09:31:11;;;;;;;71.20;32.00;;;;;;;;;;6186185;23;20025;-33
2022/11/26 09:33:36;;;;;;;68.78;31.45;;;;;;;;;;6186626;23;19999;-33
2022/11/26 09:36:05;;;;;;;74.22;33.05;;;;;;;;;;6186831;23;20071;-33
2022/11/26 09:38:31;;;;;;;83.93;36.03;;;;;;;;;;6186437;23;20012;-33
2022/11/26 09:41:01;;;;;;;86.80;35.78;;;;;;;;;;6160172;23;20016;-33
2022/11/26 09:43:37;;;;;;;84.72;36.50;;;;;;;;;;6186566;23;20496;-33
2022/11/26 09:46:03;;;;;;;99.00;39.22;;;;;;;;;;6186592;23;19997;-33
2022/11/26 09:48:31;;;;;;;84.35;36.55;;;;;;;;;;6186022;23;20052;-32
2022/11/26 09:51:00;;;;;;;79.43;34.65;;;;;;;;;;6186465;23;20033;-32
2022/11/26 09:53:35;;;;;;;79.60;36.30;;;;;;;;;;6186402;23;20383;-32
2022/11/26 09:56:00;;;;;;;79.53;34.92;;;;;;;;;;6186242;23;20005;-32
2022/11/26 09:58:32;;;;;;;76.38;33.65;;;;;;;;;;6186114;23;20841;-32
2022/11/26 10:00:59;;;;;;;87.82;37.55;;;;;;;;;;6185885;23;20095;-32
2022/11/26 10:03:29;;;;;;;76.93;33.47;;;;;;;;;;6186400;23;19993;-32
2022/11/26 10:06:13;;;;;;;86.20;35.08;;;;;;;;;;6160098;23;20005;-32
2022/11/26 10:08:56;;;;;;;85.68;37.72;;;;;;;;;;6186196;23;20084;-33
2022/11/26 10:11:38;;;;;;;89.88;38.17;;;;;;;;;;6186384;23;20001;-33
2022/11/26 10:14:06;;;;;;;91.40;39.20;;;;;;;;;;6186391;23;20084;-34
2022/11/26 10:16:41;;;;;;;99.35;42.65;;;;;;;;;;6159181;23;20036;-34
2022/11/26 10:19:13;;;;;;;97.65;40.03;;;;;;;;;;6185751;23;20072;-34
2022/11/26 10:21:40;;;;;;;77.70;32.90;;;;;;;;;;6159669;23;20008;-32
2022/11/26 10:24:13;;;;;;;78.97;35.33;;;;;;;;;;6185810;23;19997;-32
2022/11/26 10:26:38;;;;;;;70.53;34.45;;;;;;;;;;6186247;23;20025;-33
2022/11/26 10:29:06;;;;;;;67.03;31.23;;;;;;;;;;6185927;23;20035;-34
2022/11/26 10:31:33;;;;;;;66.45;31.13;;;;;;;;;;6186168;23;20017;-33
2022/11/26 10:34:02;;;;;;;68.70;30.70;;;;;;;;;;6185976;23;19993;-33
2022/11/26 10:36:35;;;;;;;61.20;29.95;;;;;;;;;;6185707;23;20005;-33
2022/11/26 10:39:00;;;;;;;71.57;30.98;;;;;;;;;;6186102;23;20000;-33
2022/11/26 10:41:27;;;;;;;67.03;31.50;;;;;;;;;;6186383;23;20036;-34
2022/11/26 10:43:52;;;;;;;71.55;33.60;;;;;;;;;;6185884;23;20049;-33
2022/11/26 10:46:34;;;;;;;68.07;32.00;;;;;;;;;;6185961;23;20104;-33
2022/11/26 10:49:18;;;;;;;74.57;34.83;;;;;;;;;;6185736;23;20001;-33
2022/11/26 10:51:45;;;;;;;77.53;34.50;;;;;;;;;;6159385;23;20027;-34
2022/11/26 10:54:22;;;;;;;76.45;34.35;;;;;;;;;;6185610;23;20414;-34
2022/11/26 10:56:52;;;;;;;83.15;36.88;;;;;;;;;;6186063;23;19997;-34
2022/11/26 10:59:17;;;;;;;;;;;;;;;;;;6186356;23;20016;-34
2022/11/26 11:01:42;;;;;;;88.45;37.67;;;;;;;;;;6159353;23;19907;-34
2022/11/26 11:04:23;;;;;;;90.28;36.50;;;;;;;;;;6185780;23;20020;-33
2022/11/26 11:06:48;;;;;;;75.82;33.17;;;;;;;;;;6185790;23;20008;-33
2022/11/26 11:09:23;;;;;;;75.22;32.67;;;;;;;;;;6185492;23;20009;-33
2022/11/26 11:12:06;;;;;;;81.38;34.00;;;;;;;;;;6159158;23;20266;-33
2022/11/26 11:14:31;;;;;;;83.65;36.38;;;;;;;;;;6185154;23;20001;-32
2022/11/26 11:16:56;;;;;;;78.82;35.13;;;;;;;;;;6158493;23;20095;-34
2022/11/26 11:19:25;;;;;;;73.53;30.42;;;;;;;;;;6185262;23;20001;-32
2022/11/26 11:21:50;;;;;;;64.40;28.52;;;;;;;;;;6185347;23;20007;-33
2022/11/26 11:24:17;;;;;;;69.45;31.10;;;;;;;;;;6185826;23;20017;-32
2022/11/26 11:26:43;;;;;;;63.47;29.60;;;;;;;;;;6185706;23;19997;-32
2022/11/26 11:29:27;;;;;;;60.15;27.33;;;;;;;;;;6185439;23;20027;-32
2022/11/26 11:31:54;;;;;;;54.08;26.70;;;;;;;;;;6185368;23;20003;-32
2022/11/26 11:34:21;;;;;;;54.60;24.90;;;;;;;;;;6185565;23;19993;-34
2022/11/26 11:37:07;;;;;;;58.38;26.38;;;;;;;;;;6185544;23;20007;-33
2022/11/26 11:39:33;;;;;;;54.30;27.17;;;;;;;;;;6164230;23;19993;-33
2022/11/26 11:42:00;;;;;;;57.85;26.45;;;;;;;;;;6185302;23;20048;-33
2022/11/26 11:44:37;;;;;;;65.38;27.13;;;;;;;;;;6158856;23;20424;-33
2022/11/26 11:47:08;;;;;;;54.92;25.27;;;;;;;;;;6185276;23;20098;-33
2022/11/26 11:49:33;;;;;;;67.82;28.85;;;;;;;;;;6185235;23;20033;-33
2022/11/26 11:51:58;;;;;;;66.60;28.80;;;;;;;;;;6185567;23;20044;-33
2022/11/26 11:54:29;;;;;;;62.60;26.90;;;;;;;;;;6185480;23;20266;-33
2022/11/26 11:57:00;;;;;;;56.88;29.02;;;;;;;;;;6185012;23;20701;-33
2022/11/26 12:00:08;;;;;;;64.47;27.85;;;;;;;;;;6185272;23;20024;-33
2022/11/26 12:02:48;;;;;;;60.38;28.00;;;;;;;;;;6184614;23;20019;-33
2022/11/26 12:05:32;;;;;;;66.95;29.10;;;;;;;;;;6185314;23;20024;-33
2022/11/26 12:08:08;;;;;;;61.72;28.00;;;;;;;;;;6185327;23;20001;-33
2022/11/26 12:10:47;;;;;;;65.28;28.98;;;;;;;;;;6185245;23;20056;-33
2022/11/26 12:13:13;;;;;;;66.60;29.23;;;;;;;;;;6185101;23;19997;-33
2022/11/26 12:15:44;;;;;;;67.25;31.50;;;;;;;;;;6185089;23;20439;-33
2022/11/26 12:18:15;;;;;;;72.60;29.95;;;;;;;;;;6184997;23;20456;-33
2022/11/26 12:20:43;;;;;;;81.90;31.88;;;;;;;;;;6185060;23;20013;-33
2022/11/26 12:23:17;;;;;;;66.13;29.45;;;;;;;;;;6185056;23;20000;-33
2022/11/26 12:25:44;;;;;;;66.30;29.75;;;;;;;;;;6184969;23;19996;-33
2022/11/26 12:28:13;;;;;;;74.28;31.73;;;;;;;;;;6184705;23;20013;-33
2022/11/26 12:30:51;;;;;;;74.88;32.20;;;;;;;;;;6184681;23;19997;-33
2022/11/26 12:33:22;;;;;;;78.78;33.63;;;;;;;;;;6158647;23;20080;-33
2022/11/26 12:35:51;;;;;;;69.60;30.00;;;;;;;;;;6184777;23;20429;-33
2022/11/26 12:38:20;;;;;;;73.57;31.77;;;;;;;;;;6184938;23;20001;-33
2022/11/26 12:40:45;;;;;;;66.07;30.80;;;;;;;;;;6184965;23;19997;-33
2022/11/26 12:43:19;;;;;;;70.28;31.30;;;;;;;;;;6184971;23;20025;-33
2022/11/26 12:46:10;;;;;;;59.53;27.52;;;;;;;;;;6185251;23;19993;-33
2022/11/26 12:48:41;;;;;;;61.20;27.85;;;;;;;;;;6113689;23;20410;-33
2022/11/26 12:51:23;;;;;;;66.68;30.30;;;;;;;;;;6184597;23;20001;-33
2022/11/26 12:53:56;;;;;;;62.28;27.92;;;;;;;;;;6185090;23;20358;-33
2022/11/26 12:56:47;;;;;;;67.07;28.83;;;;;;;;;;6184603;23;20004;-33
2022/11/26 12:59:19;;;;;;;65.65;28.55;;;;;;;;;;6178651;23;20369;-33
2022/11/26 13:01:44;;;;;;;69.78;28.98;;;;;;;;;;6186384;23;20001;-33
2022/11/26 13:04:09;;;;;;;58.75;26.85;;;;;;;;;;6186925;23;20024;-33
2022/11/26 13:06:34;;;;;;;64.45;28.48;;;;;;;;;;6187162;23;20055;-33
2022/11/26 13:09:15;;;;;;;59.65;26.80;;;;;;;;;;6186667;23;20009;-33
2022/11/26 13:11:46;;;;;;;58.30;27.05;;;;;;;;;;6187154;23;20317;-33
2022/11/26 13:14:12;;;;;;;63.35;25.23;;;;;;;;;;6186574;23;20117;-33
2022/11/26 13:16:37;;;;;;;57.63;26.47;;;;;;;;;;6186646;23;20417;-33
2022/11/26 13:19:10;;;;;;;61.13;27.33;;;;;;;;;;6186727;23;20207;-33
2022/11/26 13:21:45;;;;;;;61.83;28.65;;;;;;;;;;6186905;23;20004;-33
2022/11/26 13:24:16;;;;;;;63.17;27.98;;;;;;;;;;6186411;23;20005;-33
2022/11/26 13:26:44;;;;;;;59.88;26.90;;;;;;;;;;6186797;23;20001;-33
2022/11/26 13:29:09;;;;;;;60.17;27.15;;;;;;;;;;6186863;23;20005;-33
2022/11/26 13:31:34;;;;;;;59.43;27.67;;;;;;;;;;6186838;23;20432;-33
2022/11/26 13:33:59;;;;;;;63.07;27.23;;;;;;;;;;6186503;23;20211;-33
2022/11/26 13:36:37;;;;;;;61.15;28.83;;;;;;;;;;6186780;23;20263;-33
2022/11/26 13:39:26;;;;;;;64.32;29.42;;;;;;;;;;6186623;23;20054;-33
2022/11/26 13:42:13;;;;;;;61.10;28.42;;;;;;;;;;6184400;23;20040;-33
2022/11/26 13:44:58;;;;;;;62.50;28.88;;;;;;;;;;6186575;23;20005;-33
2022/11/26 13:47:24;;;;;;;60.80;26.90;;;;;;;;;;6186627;23;20003;-33
2022/11/26 13:49:49;;;;;;;61.67;27.98;;;;;;;;;;6186575;23;20080;-33
2022/11/26 13:52:14;;;;;;;58.03;27.03;;;;;;;;;;6186607;23;19993;-33
2022/11/26 13:54:42;;;;;;;63.57;27.33;;;;;;;;;;6186814;23;20208;-33
2022/11/26 13:57:17;;;;;;;60.93;26.17;;;;;;;;;;6185922;23;20203;-33
2022/11/26 13:59:46;;;;;;;62.47;26.08;;;;;;;;;;6186485;23;19989;-33
2022/11/26 14:02:31;;;;;;;60.65;26.17;;;;;;;;;;6186444;23;19997;-33
2022/11/26 14:04:56;;;;;;;61.47;26.20;;;;;;;;;;6186351;23;20044;-33
2022/11/26 14:07:21;;;;;;;60.30;27.83;;;;;;;;;;6186189;23;20002;-33
2022/11/26 14:09:48;;;;;;;66.75;27.15;;;;;;;;;;6186120;23;19997;-33
2022/11/26 14:12:14;;;;;;;58.97;27.13;;;;;;;;;;6186088;23;20000;-32
2022/11/26 14:14:40;;;;;;;57.83;24.45;;;;;;;;;;6186252;23;20043;-32
2022/11/26 14:17:21;;;;;;;59.95;26.02;;;;;;;;;;6185556;23;20329;-33
2022/11/26 14:19:55;;;;;;;55.35;24.67;;;;;;;;;;6186413;23;20001;-33
2022/11/26 14:22:21;;;;;;;62.90;27.02;;;;;;;;;;6185883;23;20005;-33